sensor_id;sensor_type;location;lat;lon;timestamp;P1;durP1;ratioP1;P2;durP2;ratioP2
38252;SDS011;24785;52.372;20.672;2022-07-22T00:03:08;14.30;;;7.15;;
38252;SDS011;24785;52.372;20.672;2022-07-22T00:13:09;21.33;;;8.00;;
38252;SDS011;24785;52.372;20.672;2022-07-22T00:23:10;14.70;;;6.80;;
38252;SDS011;24785;52.372;20.672;2022-07-22T00:33:11;14.15;;;8.05;;
38252;SDS011;24785;52.372;20.672;2022-07-22T00:43:11;12.50;;;7.40;;
38252;SDS011;24785;52.372;20.672;2022-07-22T00:53:12;12.07;;;6.68;;
38252;SDS011;24785;52.372;20.672;2022-07-22T01:03:13;11.80;;;6.10;;
38252;SDS011;24785;52.372;20.672;2022-07-22T01:13:14;12.95;;;6.32;;
38252;SDS011;24785;52.372;20.672;2022-07-22T01:23:15;14.55;;;6.68;;
38252;SDS011;24785;52.372;20.672;2022-07-22T01:33:19;11.70;;;6.68;;
38252;SDS011;24785;52.372;20.672;2022-07-22T01:43:21;10.80;;;5.97;;
38252;SDS011;24785;52.372;20.672;2022-07-22T01:53:22;10.15;;;6.25;;
38252;SDS011;24785;52.372;20.672;2022-07-22T02:03:23;16.55;;;6.93;;
38252;SDS011;24785;52.372;20.672;2022-07-22T02:13:24;12.48;;;6.40;;
38252;SDS011;24785;52.372;20.672;2022-07-22T02:23:25;13.77;;;6.30;;
38252;SDS011;24785;52.372;20.672;2022-07-22T02:33:25;11.98;;;6.70;;
38252;SDS011;24785;52.372;20.672;2022-07-22T02:43:26;9.68;;;6.32;;
38252;SDS011;24785;52.372;20.672;2022-07-22T02:53:27;19.98;;;7.13;;
38252;SDS011;24785;52.372;20.672;2022-07-22T03:03:28;14.55;;;7.18;;
38252;SDS011;24785;52.372;20.672;2022-07-22T03:13:29;18.92;;;7.28;;
38252;SDS011;24785;52.372;20.672;2022-07-22T03:23:29;12.82;;;6.95;;
38252;SDS011;24785;52.372;20.672;2022-07-22T03:33:30;13.27;;;7.18;;
38252;SDS011;24785;52.372;20.672;2022-07-22T03:43:31;10.85;;;5.80;;
38252;SDS011;24785;52.372;20.672;2022-07-22T03:53:32;13.73;;;5.57;;
38252;SDS011;24785;52.372;20.672;2022-07-22T04:03:33;12.13;;;5.28;;
38252;SDS011;24785;52.372;20.672;2022-07-22T04:13:34;14.45;;;5.43;;
38252;SDS011;24785;52.372;20.672;2022-07-22T04:23:35;16.10;;;11.10;;
38252;SDS011;24785;52.372;20.672;2022-07-22T04:33:36;9.70;;;5.13;;
38252;SDS011;24785;52.372;20.672;2022-07-22T04:43:36;11.03;;;4.57;;
38252;SDS011;24785;52.372;20.672;2022-07-22T04:53:37;9.80;;;4.23;;
38252;SDS011;24785;52.372;20.672;2022-07-22T05:03:38;7.97;;;4.50;;
38252;SDS011;24785;52.372;20.672;2022-07-22T05:13:40;15.93;;;4.47;;
38252;SDS011;24785;52.372;20.672;2022-07-22T05:23:41;7.53;;;4.30;;
38252;SDS011;24785;52.372;20.672;2022-07-22T05:33:43;9.00;;;4.07;;
38252;SDS011;24785;52.372;20.672;2022-07-22T05:43:43;7.60;;;4.03;;
38252;SDS011;24785;52.372;20.672;2022-07-22T05:53:44;9.97;;;4.30;;
38252;SDS011;24785;52.372;20.672;2022-07-22T06:03:45;8.77;;;4.10;;
38252;SDS011;24785;52.372;20.672;2022-07-22T06:13:46;7.73;;;3.87;;
38252;SDS011;24785;52.372;20.672;2022-07-22T06:23:47;9.37;;;4.73;;
38252;SDS011;24785;52.372;20.672;2022-07-22T06:33:48;8.10;;;3.67;;
38252;SDS011;24785;52.372;20.672;2022-07-22T06:43:48;8.87;;;4.33;;
38252;SDS011;24785;52.372;20.672;2022-07-22T06:53:49;12.13;;;4.80;;
38252;SDS011;24785;52.372;20.672;2022-07-22T07:03:50;10.70;;;4.70;;
38252;SDS011;24785;52.372;20.672;2022-07-22T07:13:51;10.20;;;4.87;;
38252;SDS011;24785;52.372;20.672;2022-07-22T07:23:52;9.73;;;5.70;;
38252;SDS011;24785;52.372;20.672;2022-07-22T07:43:54;14.30;;;7.10;;
38252;SDS011;24785;52.372;20.672;2022-07-22T07:53:55;13.88;;;6.45;;
38252;SDS011;24785;52.372;20.672;2022-07-22T08:03:56;11.77;;;7.00;;
38252;SDS011;24785;52.372;20.672;2022-07-22T08:13:57;12.48;;;6.90;;
38252;SDS011;24785;52.372;20.672;2022-07-22T08:23:58;12.93;;;8.03;;
38252;SDS011;24785;52.372;20.672;2022-07-22T08:33:58;14.83;;;7.27;;
38252;SDS011;24785;52.372;20.672;2022-07-22T08:44:00;15.13;;;8.73;;
38252;SDS011;24785;52.372;20.672;2022-07-22T08:54:02;17.23;;;9.23;;
38252;SDS011;24785;52.372;20.672;2022-07-22T09:04:03;16.83;;;8.60;;
38252;SDS011;24785;52.372;20.672;2022-07-22T09:14:04;13.35;;;8.23;;
38252;SDS011;24785;52.372;20.672;2022-07-22T09:34:06;14.37;;;8.40;;
38252;SDS011;24785;52.372;20.672;2022-07-22T09:54:21;11.75;;;7.78;;
38252;SDS011;24785;52.372;20.672;2022-07-22T10:04:23;12.43;;;7.35;;
38252;SDS011;24785;52.372;20.672;2022-07-22T10:14:25;13.85;;;7.13;;
38252;SDS011;24785;52.372;20.672;2022-07-22T10:24:27;11.15;;;5.60;;
38252;SDS011;24785;52.372;20.672;2022-07-22T10:34:28;11.77;;;6.22;;
38252;SDS011;24785;52.372;20.672;2022-07-22T10:44:47;8.75;;;5.57;;
38252;SDS011;24785;52.372;20.672;2022-07-22T11:05:25;10.30;;;6.57;;
38252;SDS011;24785;52.372;20.672;2022-07-22T11:15:27;9.43;;;5.28;;
38252;SDS011;24785;52.372;20.672;2022-07-22T11:25:28;10.43;;;5.90;;
38252;SDS011;24785;52.372;20.672;2022-07-22T11:35:29;11.88;;;6.13;;
38252;SDS011;24785;52.372;20.672;2022-07-22T11:45:29;10.60;;;5.65;;
38252;SDS011;24785;52.372;20.672;2022-07-22T11:55:30;9.23;;;5.70;;
38252;SDS011;24785;52.372;20.672;2022-07-22T12:05:31;10.55;;;5.72;;
38252;SDS011;24785;52.372;20.672;2022-07-22T12:15:32;8.10;;;5.40;;
38252;SDS011;24785;52.372;20.672;2022-07-22T12:25:48;10.52;;;6.32;;
38252;SDS011;24785;52.372;20.672;2022-07-22T12:46:02;10.95;;;6.50;;
38252;SDS011;24785;52.372;20.672;2022-07-22T12:56:03;12.82;;;6.03;;
38252;SDS011;24785;52.372;20.672;2022-07-22T13:06:07;10.55;;;5.85;;
38252;SDS011;24785;52.372;20.672;2022-07-22T13:16:10;8.35;;;5.65;;
38252;SDS011;24785;52.372;20.672;2022-07-22T13:26:11;12.45;;;6.78;;
38252;SDS011;24785;52.372;20.672;2022-07-22T13:36:12;8.77;;;6.20;;
38252;SDS011;24785;52.372;20.672;2022-07-22T13:46:14;9.68;;;5.82;;
38252;SDS011;24785;52.372;20.672;2022-07-22T13:56:15;9.43;;;5.95;;
38252;SDS011;24785;52.372;20.672;2022-07-22T14:06:16;8.50;;;6.40;;
38252;SDS011;24785;52.372;20.672;2022-07-22T14:16:17;7.15;;;5.20;;
38252;SDS011;24785;52.372;20.672;2022-07-22T14:26:36;6.43;;;4.82;;
38252;SDS011;24785;52.372;20.672;2022-07-22T14:36:38;5.65;;;4.60;;
38252;SDS011;24785;52.372;20.672;2022-07-22T14:46:39;14.25;;;4.93;;
38252;SDS011;24785;52.372;20.672;2022-07-22T14:56:40;7.65;;;5.13;;
38252;SDS011;24785;52.372;20.672;2022-07-22T15:06:41;7.43;;;5.57;;
38252;SDS011;24785;52.372;20.672;2022-07-22T15:16:42;7.80;;;5.20;;
38252;SDS011;24785;52.372;20.672;2022-07-22T15:26:43;13.45;;;5.07;;
38252;SDS011;24785;52.372;20.672;2022-07-22T15:36:44;10.00;;;5.30;;
38252;SDS011;24785;52.372;20.672;2022-07-22T15:46:45;8.52;;;5.00;;
38252;SDS011;24785;52.372;20.672;2022-07-22T15:56:47;9.40;;;4.95;;
38252;SDS011;24785;52.372;20.672;2022-07-22T16:06:49;8.55;;;5.40;;
38252;SDS011;24785;52.372;20.672;2022-07-22T16:16:50;9.27;;;5.68;;
38252;SDS011;24785;52.372;20.672;2022-07-22T16:26:51;8.48;;;5.30;;
38252;SDS011;24785;52.372;20.672;2022-07-22T16:36:52;9.25;;;5.50;;
38252;SDS011;24785;52.372;20.672;2022-07-22T16:46:52;10.40;;;5.13;;
38252;SDS011;24785;52.372;20.672;2022-07-22T16:56:53;9.85;;;5.25;;
38252;SDS011;24785;52.372;20.672;2022-07-22T17:06:54;9.80;;;6.20;;
38252;SDS011;24785;52.372;20.672;2022-07-22T17:16:55;13.60;;;5.82;;
38252;SDS011;24785;52.372;20.672;2022-07-22T17:26:56;7.10;;;5.00;;
38252;SDS011;24785;52.372;20.672;2022-07-22T17:36:56;7.95;;;5.18;;
38252;SDS011;24785;52.372;20.672;2022-07-22T17:46:57;13.50;;;5.32;;
38252;SDS011;24785;52.372;20.672;2022-07-22T17:56:58;9.70;;;5.18;;
38252;SDS011;24785;52.372;20.672;2022-07-22T18:17:00;19.67;;;6.40;;
38252;SDS011;24785;52.372;20.672;2022-07-22T18:27:01;103.53;;;10.97;;
38252;SDS011;24785;52.372;20.672;2022-07-22T18:37:02;12.20;;;6.40;;
38252;SDS011;24785;52.372;20.672;2022-07-22T18:47:03;8.77;;;6.47;;
38252;SDS011;24785;52.372;20.672;2022-07-22T18:57:03;21.23;;;7.77;;
38252;SDS011;24785;52.372;20.672;2022-07-22T19:07:04;28.87;;;8.77;;
38252;SDS011;24785;52.372;20.672;2022-07-22T19:27:07;20.48;;;8.70;;
38252;SDS011;24785;52.372;20.672;2022-07-22T19:37:09;22.57;;;9.20;;
38252;SDS011;24785;52.372;20.672;2022-07-22T19:47:11;11.50;;;8.77;;
38252;SDS011;24785;52.372;20.672;2022-07-22T19:57:11;17.60;;;9.43;;
38252;SDS011;24785;52.372;20.672;2022-07-22T20:07:13;14.60;;;8.82;;
38252;SDS011;24785;52.372;20.672;2022-07-22T20:17:14;15.43;;;9.83;;
38252;SDS011;24785;52.372;20.672;2022-07-22T20:27:15;19.88;;;9.70;;
38252;SDS011;24785;52.372;20.672;2022-07-22T20:37:17;19.23;;;10.30;;
38252;SDS011;24785;52.372;20.672;2022-07-22T20:47:17;15.45;;;9.73;;
38252;SDS011;24785;52.372;20.672;2022-07-22T20:57:18;17.63;;;10.15;;
38252;SDS011;24785;52.372;20.672;2022-07-22T21:07:19;19.73;;;11.10;;
38252;SDS011;24785;52.372;20.672;2022-07-22T21:17:21;14.90;;;10.77;;
38252;SDS011;24785;52.372;20.672;2022-07-22T21:27:22;19.42;;;10.82;;
38252;SDS011;24785;52.372;20.672;2022-07-22T21:37:23;15.95;;;10.15;;
38252;SDS011;24785;52.372;20.672;2022-07-22T21:47:24;18.13;;;10.55;;
38252;SDS011;24785;52.372;20.672;2022-07-22T21:57:25;16.42;;;10.05;;
38252;SDS011;24785;52.372;20.672;2022-07-22T22:07:26;18.95;;;11.85;;
38252;SDS011;24785;52.372;20.672;2022-07-22T22:17:27;15.82;;;11.20;;
38252;SDS011;24785;52.372;20.672;2022-07-22T22:27:28;17.95;;;10.75;;
38252;SDS011;24785;52.372;20.672;2022-07-22T22:37:29;14.43;;;10.10;;
38252;SDS011;24785;52.372;20.672;2022-07-22T22:47:30;15.73;;;10.43;;
38252;SDS011;24785;52.372;20.672;2022-07-22T22:57:30;16.08;;;10.50;;
38252;SDS011;24785;52.372;20.672;2022-07-22T23:07:31;18.25;;;10.20;;
38252;SDS011;24785;52.372;20.672;2022-07-22T23:17:32;13.30;;;9.82;;
38252;SDS011;24785;52.372;20.672;2022-07-22T23:27:33;14.30;;;10.00;;
38252;SDS011;24785;52.372;20.672;2022-07-22T23:37:34;15.77;;;10.40;;
38252;SDS011;24785;52.372;20.672;2022-07-22T23:47:35;10.70;;;7.65;;
38252;SDS011;24785;52.372;20.672;2022-07-22T23:57:35;12.10;;;8.30;;
